Almond, Alabama
Current Conditions -  °F | °C
As of 2:55 PM on Tuesday 27 Jan 2015 (Local Time) from KLGC Reporting Station
Clear Clear  
Wind Chill: 57°   Ceiling: Unl
Heat Index: 57°   Visibility: 10mi
Dew Point: 33°   Wind: 17mph
Humidity: 40%   Direction: 320°NW
Pressure: 29.98"   Gusts: 21mph
Location:  33.1661°N, 85.5111°W
Report Text: KLGC 272055Z AUTO 32015G18KT 10SM CLR 14/01 A2998 RMK AO2 T01410005
Loading
Personal Weather Stations






























Interactive Weather Map New forecast layout! Learn more

10-Day Weather Forecast

Advertisements
Track Severe Weather on mobile